METAR Data
IDs: Format: Raw Decoded Include TAF

Data at: 1112 UTC 25 Oct 2020

KABY 251107Z AUTO 00000KT 1SM BR OVC002 20/20 A2994 RMK AO2 T02000200